createdAt,value
2018-12-10T00:00:31.522Z,3.90
2018-12-10T00:03:05.092Z,3.80
2018-12-10T00:05:32.955Z,3.80
2018-12-10T00:08:00.417Z,3.60
2018-12-10T00:10:27.853Z,3.60
2018-12-10T00:12:55.330Z,3.50
2018-12-10T00:15:22.791Z,3.60
2018-12-10T00:17:50.224Z,3.60
2018-12-10T00:20:17.984Z,3.60
2018-12-10T00:22:45.421Z,3.70
2018-12-10T00:25:13.721Z,3.70
2018-12-10T00:27:41.513Z,3.80
2018-12-10T00:30:09.045Z,3.90
2018-12-10T00:32:36.520Z,4.00
2018-12-10T00:35:04.038Z,4.00
2018-12-10T00:37:31.477Z,4.10
2018-12-10T00:39:59.033Z,4.10
2018-12-10T00:42:26.957Z,4.10
2018-12-10T00:44:54.497Z,4.10
2018-12-10T00:47:21.923Z,4.10
2018-12-10T00:49:49.427Z,4.10
2018-12-10T00:52:20.834Z,4.10
2018-12-10T00:54:48.289Z,4.10
2018-12-10T00:57:16.565Z,4.10
2018-12-10T00:59:44.058Z,4.00
2018-12-10T01:02:11.648Z,4.00
2018-12-10T01:04:39.184Z,4.10
2018-12-10T01:07:10.210Z,4.10
2018-12-10T01:09:37.642Z,4.10
2018-12-10T01:12:05.903Z,3.90
2018-12-10T01:14:33.467Z,3.90
2018-12-10T01:17:01.083Z,4.00
2018-12-10T01:19:28.554Z,3.90
2018-12-10T01:21:56.014Z,3.90
2018-12-10T01:24:23.446Z,3.90
2018-12-10T01:26:50.931Z,3.90
2018-12-10T01:29:18.478Z,4.00
2018-12-10T01:31:46.113Z,4.00
2018-12-10T01:34:14.493Z,4.00
2018-12-10T01:36:41.949Z,4.00
2018-12-10T01:39:09.425Z,3.90
2018-12-10T01:41:37.001Z,3.80
2018-12-10T01:44:04.824Z,3.90
2018-12-10T01:46:32.313Z,3.90
2018-12-10T01:48:59.796Z,3.90
2018-12-10T01:51:28.162Z,4.00
2018-12-10T01:53:55.584Z,3.80
2018-12-10T01:56:23.143Z,3.80
2018-12-10T01:58:50.817Z,3.80
2018-12-10T02:01:18.585Z,3.80
2018-12-10T02:03:46.054Z,3.80
2018-12-10T02:06:13.505Z,3.80
2018-12-10T02:08:41.891Z,3.70
2018-12-10T02:11:09.355Z,3.60
2018-12-10T02:13:37.002Z,3.70
2018-12-10T02:16:04.498Z,3.80
2018-12-10T02:18:31.959Z,3.80
2018-12-10T02:20:59.405Z,3.90
2018-12-10T02:23:26.901Z,3.90
2018-12-10T02:25:55.262Z,4.00
2018-12-10T02:28:28.342Z,4.00
2018-12-10T02:30:55.900Z,4.10
2018-12-10T02:33:23.366Z,4.10
2018-12-10T02:35:51.335Z,4.00
2018-12-10T02:38:19.002Z,4.00
2018-12-10T02:40:46.428Z,4.00
2018-12-10T02:43:13.900Z,4.00
2018-12-10T02:45:41.434Z,3.90
2018-12-10T02:48:08.932Z,4.00
2018-12-10T02:50:36.367Z,4.00
2018-12-10T02:53:04.710Z,4.10
2018-12-10T02:55:32.272Z,4.10
2018-12-10T02:57:59.730Z,4.20
2018-12-10T03:00:27.158Z,4.20
2018-12-10T03:02:54.615Z,4.20
2018-12-10T03:05:22.202Z,4.20
2018-12-10T03:07:49.703Z,4.20
2018-12-10T03:10:21.445Z,4.30
2018-12-10T03:12:49.119Z,4.30
2018-12-10T03:15:16.549Z,4.30
2018-12-10T03:17:44.016Z,4.40
2018-12-10T03:20:11.473Z,4.40
2018-12-10T03:22:38.926Z,4.40
2018-12-10T03:25:10.473Z,4.40
2018-12-10T03:27:37.912Z,4.40
2018-12-10T03:30:05.422Z,4.40
2018-12-10T03:32:32.945Z,4.40
2018-12-10T03:35:00.461Z,4.40
2018-12-10T03:37:27.906Z,4.40
2018-12-10T03:39:58.501Z,4.40
2018-12-10T03:42:26.723Z,4.40
2018-12-10T03:44:54.186Z,4.40
2018-12-10T03:47:21.627Z,4.40
2018-12-10T03:49:49.129Z,4.30
2018-12-10T03:52:16.643Z,4.10
2018-12-10T03:54:44.121Z,4.10
2018-12-10T03:57:11.605Z,4.10
2018-12-10T03:59:39.370Z,4.00
2018-12-10T04:02:06.799Z,4.00
2018-12-10T04:04:34.281Z,4.00
2018-12-10T04:07:01.935Z,3.80
2018-12-10T04:09:29.935Z,3.60
2018-12-10T04:12:00.443Z,3.30
2018-12-10T04:14:28.211Z,3.20
2018-12-10T04:16:55.976Z,3.10
2018-12-10T04:19:23.562Z,3.10
2018-12-10T04:21:51.014Z,3.10
2018-12-10T04:24:19.566Z,3.00
2018-12-10T04:26:47.029Z,3.00
2018-12-10T04:29:14.649Z,2.90
2018-12-10T04:31:42.152Z,2.90
2018-12-10T04:34:09.645Z,2.80
2018-12-10T04:36:38.042Z,2.70
2018-12-10T04:39:06.287Z,2.60
2018-12-10T04:41:33.721Z,2.60
2018-12-10T04:44:01.177Z,2.70
2018-12-10T04:46:28.997Z,2.70
2018-12-10T04:48:56.597Z,2.70
2018-12-10T04:51:24.063Z,2.60
2018-12-10T04:53:52.436Z,2.60
2018-12-10T04:56:23.277Z,2.50
2018-12-10T04:58:50.937Z,2.50
2018-12-10T05:01:18.483Z,2.60
2018-12-10T05:03:45.977Z,2.60
2018-12-10T05:06:13.608Z,2.70
2018-12-10T05:08:42.092Z,2.70
2018-12-10T05:11:09.767Z,2.70
2018-12-10T05:13:37.244Z,2.70
2018-12-10T05:16:04.675Z,2.60
2018-12-10T05:18:32.102Z,2.60
2018-12-10T05:20:59.575Z,2.60
2018-12-10T05:23:27.014Z,2.60
2018-12-10T05:25:55.389Z,2.70
2018-12-10T05:28:23.007Z,2.60
2018-12-10T05:30:50.531Z,2.60
2018-12-10T05:33:17.986Z,2.70
2018-12-10T05:35:45.636Z,2.70
2018-12-10T05:38:13.069Z,2.80
2018-12-10T05:40:40.532Z,2.80
2018-12-10T05:43:08.002Z,2.80
2018-12-10T05:45:35.594Z,2.80
2018-12-10T05:48:03.966Z,2.80
2018-12-10T05:50:31.623Z,2.90
2018-12-10T05:52:59.061Z,2.90
2018-12-10T05:55:26.586Z,2.90
2018-12-10T05:57:54.023Z,2.90
2018-12-10T06:00:21.513Z,2.90
2018-12-10T06:02:48.982Z,2.90
2018-12-10T06:05:17.541Z,2.80
2018-12-10T06:07:45.100Z,2.90
2018-12-10T06:10:13.009Z,2.90
2018-12-10T06:12:40.465Z,2.90
2018-12-10T06:15:08.141Z,3.00
2018-12-10T06:17:36.345Z,3.00
2018-12-10T06:20:05.085Z,3.00
2018-12-10T06:22:32.560Z,3.00
2018-12-10T06:25:00.042Z,3.00
2018-12-10T06:27:31.673Z,2.90
2018-12-10T06:29:59.131Z,2.90
2018-12-10T06:32:26.708Z,2.90
2018-12-10T06:34:54.145Z,2.90
2018-12-10T06:37:21.581Z,2.90
2018-12-10T06:39:49.352Z,3.00
2018-12-10T06:42:16.844Z,3.00
2018-12-10T06:44:44.492Z,3.10
2018-12-10T06:47:11.953Z,3.10
2018-12-10T06:49:40.610Z,3.10
2018-12-10T06:52:08.232Z,3.10
2018-12-10T06:54:35.686Z,3.10
2018-12-10T06:57:03.453Z,3.00
2018-12-10T06:59:30.942Z,2.90
2018-12-10T07:01:58.766Z,3.00
2018-12-10T07:04:26.238Z,3.00
2018-12-10T07:06:53.755Z,2.90
2018-12-10T07:09:21.198Z,2.90
2018-12-10T07:11:48.826Z,2.90
2018-12-10T07:14:16.341Z,2.90
2018-12-10T07:16:43.914Z,2.90
2018-12-10T07:19:11.384Z,2.90
2018-12-10T07:21:38.893Z,2.80
2018-12-10T07:24:07.278Z,2.90
2018-12-10T07:26:34.751Z,2.90
2018-12-10T07:29:02.182Z,3.00
2018-12-10T07:31:29.688Z,3.00
2018-12-10T07:33:57.267Z,3.00
2018-12-10T07:36:24.722Z,3.10
2018-12-10T07:38:52.186Z,3.20
2018-12-10T07:41:20.904Z,3.30
2018-12-10T07:43:52.487Z,3.40
2018-12-10T07:46:19.970Z,3.40
2018-12-10T07:48:47.696Z,3.50
2018-12-10T07:51:15.762Z,3.60
2018-12-10T07:53:43.194Z,3.60
2018-12-10T07:56:10.645Z,3.70
2018-12-10T07:58:38.105Z,3.70
2018-12-10T08:01:05.582Z,3.80
2018-12-10T08:03:33.239Z,3.90
2018-12-10T08:06:00.884Z,3.90
2018-12-10T08:08:28.622Z,3.90
2018-12-10T08:10:56.079Z,3.90
2018-12-10T08:13:24.521Z,3.90
2018-12-10T08:15:52.020Z,3.90
2018-12-10T08:18:19.450Z,3.90
2018-12-10T08:20:47.042Z,3.90
2018-12-10T08:23:14.511Z,3.90
2018-12-10T08:25:42.002Z,3.80
2018-12-10T08:28:09.453Z,3.70
2018-12-10T08:30:37.929Z,3.80
2018-12-10T08:33:05.380Z,3.80
2018-12-10T08:38:02.381Z,4.00
2018-12-10T08:39:15.183Z,3.90
2018-12-10T08:40:29.822Z,4.00
2018-12-10T08:42:57.463Z,4.00
2018-12-10T08:45:28.565Z,4.10
2018-12-10T08:47:56.991Z,4.10
2018-12-10T08:50:24.553Z,4.10
2018-12-10T08:52:52.072Z,4.00
2018-12-10T08:55:19.541Z,4.00
2018-12-10T08:57:47.090Z,4.00
2018-12-10T09:00:14.785Z,4.10
2018-12-10T09:02:42.283Z,4.10
2018-12-10T09:05:09.797Z,4.10
2018-12-10T09:07:37.267Z,4.10
2018-12-10T09:10:06.484Z,4.10
2018-12-10T09:12:33.995Z,4.10
2018-12-10T09:15:01.461Z,4.20
2018-12-10T09:17:33.333Z,4.20
2018-12-10T09:20:00.897Z,4.20
2018-12-10T09:22:28.343Z,4.30
2018-12-10T09:24:55.965Z,4.20
2018-12-10T09:27:23.437Z,4.20
2018-12-10T09:29:50.866Z,4.10
2018-12-10T09:32:18.410Z,4.10
2018-12-10T09:34:46.005Z,4.10
2018-12-10T09:37:14.541Z,4.20
2018-12-10T09:39:42.104Z,4.20
2018-12-10T09:42:09.606Z,4.20
2018-12-10T09:44:37.030Z,4.20
2018-12-10T09:47:08.462Z,4.20
2018-12-10T09:49:36.010Z,4.30
2018-12-10T09:52:03.728Z,4.30
2018-12-10T09:54:31.238Z,4.30
2018-12-10T09:56:58.788Z,4.40
2018-12-10T09:59:26.596Z,4.50
2018-12-10T10:01:57.192Z,4.50
2018-12-10T10:04:24.753Z,4.60
2018-12-10T10:06:53.180Z,4.50
2018-12-10T10:09:20.795Z,4.10
2018-12-10T10:11:48.670Z,3.50
2018-12-10T10:14:16.146Z,2.70
2018-12-10T10:16:54.646Z,2.30
2018-12-10T10:19:22.136Z,2.10
2018-12-10T10:21:49.583Z,1.90
2018-12-10T10:24:17.081Z,1.70
2018-12-10T10:26:44.656Z,1.50
2018-12-10T10:29:12.133Z,1.30
2018-12-10T10:31:43.778Z,1.30
2018-12-10T10:34:11.242Z,1.40
2018-12-10T10:36:38.728Z,1.50
2018-12-10T10:39:06.338Z,1.60
2018-12-10T10:41:33.873Z,1.70
2018-12-10T10:44:02.063Z,1.80
2018-12-10T10:46:29.705Z,1.80
2018-12-10T10:48:57.738Z,1.80
2018-12-10T10:51:26.129Z,2.00
2018-12-10T10:53:53.557Z,2.10
2018-12-10T10:56:20.997Z,2.10
2018-12-10T10:58:48.509Z,2.00
2018-12-10T11:01:24.660Z,1.80
2018-12-10T11:03:52.096Z,1.80
2018-12-10T11:06:19.605Z,1.90
2018-12-10T11:08:48.078Z,2.00
2018-12-10T11:11:15.778Z,2.10
2018-12-10T11:13:43.261Z,2.10
2018-12-10T11:16:10.697Z,2.10
2018-12-10T11:18:38.130Z,2.10
2018-12-10T11:21:05.631Z,2.30
2018-12-10T11:23:33.170Z,2.50
2018-12-10T11:26:01.337Z,2.70
2018-12-10T11:28:28.828Z,2.90
2018-12-10T11:30:56.358Z,3.00
2018-12-10T11:33:23.795Z,3.20
2018-12-10T11:35:51.581Z,3.40
2018-12-10T11:38:19.038Z,3.50
2018-12-10T11:40:46.506Z,3.70
2018-12-10T11:43:14.765Z,3.70
2018-12-10T11:45:42.886Z,3.80
2018-12-10T11:48:10.514Z,4.00
2018-12-10T11:50:37.977Z,4.20
2018-12-10T11:53:05.410Z,4.30
2018-12-10T11:58:11.709Z,4.30
2018-12-10T12:00:39.466Z,4.20
2018-12-10T12:03:11.241Z,4.20
2018-12-10T12:05:38.685Z,4.20
2018-12-10T12:08:06.172Z,4.20
2018-12-10T12:10:33.766Z,4.40
2018-12-10T12:13:01.293Z,4.50
2018-12-10T12:15:30.367Z,4.60
2018-12-10T12:17:57.849Z,4.70
2018-12-10T12:20:25.388Z,4.70
2018-12-10T12:22:52.953Z,4.70
2018-12-10T12:25:20.547Z,4.60
2018-12-10T12:27:48.019Z,4.50
2018-12-10T12:30:15.621Z,4.50
2018-12-10T12:32:43.790Z,4.60
2018-12-10T12:35:11.546Z,4.60
2018-12-10T12:37:39.022Z,4.60
2018-12-10T12:40:06.553Z,4.70
2018-12-10T12:42:33.992Z,4.60
2018-12-10T12:45:01.478Z,4.80
2018-12-10T12:47:28.915Z,4.70
2018-12-10T12:49:56.402Z,4.70
2018-12-10T12:52:23.874Z,4.70
2018-12-10T12:54:52.336Z,4.60
2018-12-10T12:57:19.820Z,4.60
2018-12-10T12:59:47.346Z,4.60
2018-12-10T13:02:15.010Z,4.50
2018-12-10T13:04:42.476Z,4.50
2018-12-10T13:07:09.968Z,4.40
2018-12-10T13:09:37.469Z,4.30
2018-12-10T13:12:05.927Z,4.10
2018-12-10T13:14:33.525Z,4.10
2018-12-10T13:17:00.959Z,4.20
2018-12-10T13:19:29.738Z,4.20
2018-12-10T13:21:57.526Z,4.20
2018-12-10T13:24:25.137Z,4.30
2018-12-10T13:26:52.571Z,4.30
2018-12-10T13:29:20.037Z,4.20
2018-12-10T13:31:47.495Z,4.20
2018-12-10T13:34:15.003Z,4.10
2018-12-10T13:36:42.443Z,4.10
2018-12-10T13:39:09.868Z,4.10
2018-12-10T13:41:37.425Z,4.10
2018-12-10T13:44:04.922Z,4.20
2018-12-10T13:46:33.080Z,4.20
2018-12-10T13:49:00.588Z,4.30
2018-12-10T13:51:28.385Z,4.40
2018-12-10T13:53:55.805Z,4.40
2018-12-10T13:56:23.343Z,4.40
2018-12-10T13:58:50.936Z,4.30
2018-12-10T14:01:18.378Z,4.30
2018-12-10T14:03:46.544Z,4.30
2018-12-10T14:06:14.129Z,4.20
2018-12-10T14:08:41.689Z,4.20
2018-12-10T14:11:09.250Z,4.30
2018-12-10T14:13:36.706Z,4.20
2018-12-10T14:16:04.411Z,4.20
2018-12-10T14:18:31.947Z,4.20
2018-12-10T14:20:59.435Z,4.20
2018-12-10T14:23:26.951Z,4.20
2018-12-10T14:25:55.081Z,4.10
2018-12-10T14:28:22.637Z,4.10
2018-12-10T14:30:50.112Z,4.10
2018-12-10T14:33:17.698Z,4.10
2018-12-10T14:35:48.128Z,4.10
2018-12-10T14:38:15.589Z,4.10
2018-12-10T14:40:43.042Z,4.10
2018-12-10T14:43:10.698Z,4.20
2018-12-10T14:45:39.133Z,4.10
2018-12-10T14:48:06.554Z,4.00
2018-12-10T14:50:34.260Z,4.00
2018-12-10T14:53:01.710Z,4.00
2018-12-10T14:55:29.170Z,3.80
2018-12-10T14:57:56.651Z,3.70
2018-12-10T15:00:24.123Z,3.60
2018-12-10T15:02:51.894Z,3.50
2018-12-10T15:05:19.652Z,3.40
2018-12-10T15:07:47.133Z,3.20
2018-12-10T15:10:14.566Z,3.10
2018-12-10T15:12:42.026Z,3.00
2018-12-10T15:15:10.061Z,3.00
2018-12-10T15:17:37.865Z,2.90
2018-12-10T15:20:07.802Z,2.90
2018-12-10T15:22:38.498Z,3.00
2018-12-10T15:25:06.155Z,3.00
2018-12-10T15:27:33.637Z,3.10
2018-12-10T15:30:01.808Z,3.20
2018-12-10T15:32:29.453Z,3.20
2018-12-10T15:34:56.913Z,3.30
2018-12-10T15:37:27.898Z,3.40
2018-12-10T15:39:55.414Z,3.50
2018-12-10T15:42:23.090Z,3.50
2018-12-10T15:44:51.169Z,3.60
2018-12-10T15:47:18.672Z,3.70
2018-12-10T15:49:46.097Z,3.70
2018-12-10T15:52:17.216Z,3.80
2018-12-10T15:54:44.674Z,3.70
2018-12-10T15:57:12.352Z,3.70
2018-12-10T15:59:40.712Z,3.60
2018-12-10T16:02:08.834Z,3.70
2018-12-10T16:04:36.548Z,3.70
2018-12-10T16:07:08.002Z,3.60
2018-12-10T16:09:36.026Z,3.70
2018-12-10T16:12:03.585Z,3.80
2018-12-10T16:14:31.065Z,3.80
2018-12-10T16:16:58.545Z,3.80
2018-12-10T16:19:26.018Z,3.80
2018-12-10T16:21:53.478Z,3.80
2018-12-10T16:24:21.407Z,3.90
2018-12-10T16:26:49.299Z,3.90
2018-12-10T16:29:16.753Z,3.90
2018-12-10T16:31:44.262Z,3.90
2018-12-10T16:34:11.745Z,3.90
2018-12-10T16:36:39.268Z,4.00
2018-12-10T16:39:08.221Z,4.00
2018-12-10T16:41:35.746Z,4.00
2018-12-10T16:44:03.295Z,4.00
2018-12-10T16:46:30.740Z,3.90
2018-12-10T16:48:58.209Z,4.00
2018-12-10T16:51:25.781Z,3.90
2018-12-10T16:53:53.217Z,3.80
2018-12-10T16:56:20.662Z,3.70
2018-12-10T16:58:48.187Z,3.70
2018-12-10T17:01:15.641Z,3.60
2018-12-10T17:03:43.101Z,3.60
2018-12-10T17:06:11.271Z,3.50
2018-12-10T17:08:42.325Z,3.40
2018-12-10T17:11:09.775Z,3.40
2018-12-10T17:13:37.394Z,3.40
2018-12-10T17:16:05.292Z,3.40
2018-12-10T17:18:32.770Z,3.30
2018-12-10T17:21:00.749Z,3.30
2018-12-10T17:23:31.447Z,3.30
2018-12-10T17:25:59.207Z,3.30
2018-12-10T17:28:26.668Z,3.30
2018-12-10T17:30:54.121Z,3.00
2018-12-10T17:33:21.589Z,2.40
2018-12-10T17:35:49.974Z,1.90
2018-12-10T17:38:17.587Z,1.70
2018-12-10T17:40:45.311Z,1.60
2018-12-10T17:43:13.040Z,1.60
2018-12-10T17:45:40.486Z,1.70
2018-12-10T17:48:08.094Z,1.80
2018-12-10T17:50:35.733Z,1.60
2018-12-10T17:55:37.882Z,1.60
2018-12-10T17:58:05.365Z,1.50
2018-12-10T18:00:32.811Z,1.50
2018-12-10T18:03:03.299Z,1.50
2018-12-10T18:05:30.855Z,1.60
2018-12-10T18:07:59.137Z,1.60
2018-12-10T18:10:26.590Z,1.60
2018-12-10T18:12:54.141Z,1.60
2018-12-10T18:15:21.856Z,1.50
2018-12-10T18:17:49.316Z,1.60
2018-12-10T18:20:16.796Z,1.60
2018-12-10T18:22:44.275Z,1.60
2018-12-10T18:25:11.786Z,1.70
2018-12-10T18:27:39.265Z,1.70
2018-12-10T18:30:11.398Z,1.80
2018-12-10T18:32:38.856Z,1.80
2018-12-10T18:35:07.180Z,1.80
2018-12-10T18:37:34.638Z,1.80
2018-12-10T18:40:04.441Z,1.80
2018-12-10T18:42:32.681Z,1.80
2018-12-10T18:45:00.315Z,1.90
2018-12-10T18:47:27.815Z,1.90
2018-12-10T18:49:55.246Z,1.90
2018-12-10T18:52:22.707Z,2.00
2018-12-10T18:54:50.296Z,2.00
2018-12-10T18:57:17.745Z,2.00
2018-12-10T18:59:45.205Z,2.00
2018-12-10T19:02:12.646Z,2.00
2018-12-10T19:07:06.961Z,2.00
2018-12-10T19:09:34.542Z,1.90
2018-12-10T19:12:02.025Z,1.90
2018-12-10T19:14:30.107Z,1.90
2018-12-10T19:16:57.598Z,1.80
2018-12-10T19:19:26.350Z,1.70
2018-12-10T19:21:54.417Z,1.70
2018-12-10T19:24:21.982Z,1.80
2018-12-10T19:26:49.590Z,1.80
2018-12-10T19:29:17.119Z,1.90
2018-12-10T19:31:44.610Z,2.00
2018-12-10T19:34:12.118Z,2.00
2018-12-10T19:36:39.724Z,2.00
2018-12-10T19:39:08.074Z,2.20
2018-12-10T19:41:35.682Z,2.20
2018-12-10T19:44:03.210Z,2.10
2018-12-10T19:46:30.901Z,2.00
2018-12-10T19:48:58.861Z,2.00
2018-12-10T19:51:27.242Z,1.90
2018-12-10T19:53:54.810Z,1.80
2018-12-10T19:56:22.273Z,1.80
2018-12-10T19:58:49.786Z,1.70
2018-12-10T20:01:17.232Z,1.80
2018-12-10T20:03:44.697Z,1.80
2018-12-10T20:06:16.102Z,1.80
2018-12-10T20:08:44.482Z,1.90
2018-12-10T20:11:11.968Z,1.80
2018-12-10T20:13:39.444Z,1.90
2018-12-10T20:16:06.901Z,1.80
2018-12-10T20:18:34.405Z,1.70
2018-12-10T20:21:01.945Z,1.60
2018-12-10T20:23:30.358Z,1.60
2018-12-10T20:25:57.825Z,1.70
2018-12-10T20:28:25.301Z,1.60
2018-12-10T20:30:52.826Z,1.70
2018-12-10T20:33:20.351Z,1.70
2018-12-10T20:35:47.855Z,1.60
2018-12-10T20:38:15.480Z,1.60
2018-12-10T20:40:43.347Z,1.60
2018-12-10T20:43:11.013Z,1.70
2018-12-10T20:45:38.775Z,1.80
2018-12-10T20:48:06.233Z,1.70
2018-12-10T20:50:33.709Z,1.80
2018-12-10T20:53:01.217Z,1.70
2018-12-10T20:55:28.785Z,1.70
2018-12-10T20:58:04.130Z,1.70
2018-12-10T21:00:31.637Z,1.70
2018-12-10T21:02:59.266Z,1.60
2018-12-10T21:05:26.722Z,1.60
2018-12-10T21:07:54.497Z,1.70
2018-12-10T21:10:21.944Z,1.70
2018-12-10T21:12:49.392Z,1.70
2018-12-10T21:15:17.757Z,1.60
2018-12-10T21:17:45.269Z,1.70
2018-12-10T21:20:12.876Z,1.60
2018-12-10T21:22:40.334Z,1.70
2018-12-10T21:25:08.073Z,1.70
2018-12-10T21:27:42.626Z,1.70
2018-12-10T21:30:10.506Z,1.80
2018-12-10T21:32:37.945Z,1.80
2018-12-10T21:35:05.543Z,1.80
2018-12-10T21:37:33.054Z,1.80
2018-12-10T21:40:00.748Z,1.90
2018-12-10T21:42:31.890Z,2.00
2018-12-10T21:44:59.448Z,2.00
2018-12-10T21:47:26.884Z,2.10
2018-12-10T21:49:54.321Z,2.10
2018-12-10T21:52:21.783Z,2.10
2018-12-10T21:54:49.307Z,2.10
2018-12-10T21:57:16.945Z,2.20
2018-12-10T21:59:44.409Z,2.20
2018-12-10T22:02:11.856Z,2.20
2018-12-10T22:04:39.326Z,2.20
2018-12-10T22:07:06.799Z,2.20
2018-12-10T22:09:34.737Z,2.30
2018-12-10T22:12:02.186Z,2.20
2018-12-10T22:14:30.327Z,2.20
2018-12-10T22:16:57.997Z,2.30
2018-12-10T22:19:25.589Z,2.30
2018-12-10T22:21:53.139Z,2.30
2018-12-10T22:24:20.598Z,2.20
2018-12-10T22:26:48.681Z,2.20
2018-12-10T22:29:23.113Z,2.20
2018-12-10T22:31:50.564Z,2.20
2018-12-10T22:34:18.925Z,2.20
2018-12-10T22:36:46.457Z,2.20
2018-12-10T22:39:13.905Z,2.10
2018-12-10T22:41:41.389Z,2.10
2018-12-10T22:44:12.141Z,2.00
2018-12-10T22:46:39.594Z,2.00
2018-12-10T22:49:07.061Z,2.00
2018-12-10T22:51:34.509Z,2.10
2018-12-10T22:54:02.187Z,2.10
2018-12-10T22:56:29.638Z,2.10
2018-12-10T22:58:57.522Z,2.10
2018-12-10T23:01:25.269Z,2.10
2018-12-10T23:03:52.721Z,2.10
2018-12-10T23:06:20.178Z,2.20
2018-12-10T23:08:47.616Z,2.20
2018-12-10T23:11:15.078Z,2.20
2018-12-10T23:13:42.513Z,2.20
2018-12-10T23:16:10.577Z,2.10
2018-12-10T23:18:38.020Z,2.10
2018-12-10T23:21:05.743Z,2.20
2018-12-10T23:23:33.393Z,2.10
2018-12-10T23:26:00.862Z,2.10
2018-12-10T23:28:28.442Z,2.10
2018-12-10T23:30:55.946Z,2.10
2018-12-10T23:33:23.390Z,2.20
2018-12-10T23:35:50.838Z,2.20
2018-12-10T23:38:19.227Z,2.30
2018-12-10T23:40:46.693Z,2.30
2018-12-10T23:43:19.901Z,2.30
2018-12-10T23:45:47.373Z,2.30
2018-12-10T23:48:14.843Z,2.40
2018-12-10T23:50:42.395Z,2.40
2018-12-10T23:53:09.863Z,2.40
2018-12-10T23:55:37.419Z,2.40
2018-12-10T23:58:04.856Z,2.40
